createdAt,value
2019-02-14T00:04:34.543Z,1025.24
2019-02-14T00:09:34.509Z,1025.34
2019-02-14T00:14:33.652Z,1025.37
2019-02-14T00:19:33.471Z,1025.39
2019-02-14T00:24:32.593Z,1025.40
2019-02-14T00:29:32.600Z,1025.32
2019-02-14T00:34:31.844Z,1025.35
2019-02-14T00:39:31.547Z,1025.38
2019-02-14T00:44:31.562Z,1025.46
2019-02-14T00:49:30.485Z,1025.48
2019-02-14T00:54:30.521Z,1025.45
2019-02-14T00:59:29.895Z,1025.47
2019-02-14T01:04:30.519Z,1025.47
2019-02-14T01:09:29.537Z,1025.43
2019-02-14T01:14:28.508Z,1025.35
2019-02-14T01:19:27.816Z,1025.33
2019-02-14T01:29:27.532Z,1025.30
2019-02-14T01:34:26.542Z,1025.38
2019-02-14T01:39:25.801Z,1025.37
2019-02-14T01:44:25.564Z,1025.23
2019-02-14T01:49:25.590Z,1025.26
2019-02-14T01:54:26.600Z,1025.17
2019-02-14T01:59:25.573Z,1025.22
2019-02-14T02:04:24.844Z,1025.06
2019-02-14T02:09:24.585Z,1025.14
2019-02-14T02:14:24.592Z,1025.04
2019-02-14T02:19:25.589Z,1025.17
2019-02-14T02:24:24.620Z,1025.14
2019-02-14T02:29:24.627Z,1025.13
2019-02-14T02:34:24.601Z,1025.15
2019-02-14T02:39:23.590Z,1025.20
2019-02-14T02:44:23.586Z,1025.17
2019-02-14T02:49:23.587Z,1025.20
2019-02-14T02:54:23.614Z,1025.27
2019-02-14T02:59:23.623Z,1025.14
2019-02-14T03:04:23.763Z,1025.29
2019-02-14T03:09:24.625Z,1025.17
2019-02-14T03:14:25.619Z,1025.21
2019-02-14T03:19:25.824Z,1025.21
2019-02-14T03:24:26.637Z,1025.17
2019-02-14T03:29:25.663Z,1025.20
2019-02-14T03:34:24.594Z,1025.22
2019-02-14T03:39:23.634Z,1025.22
2019-02-14T03:44:24.635Z,1025.39
2019-02-14T03:49:24.616Z,1025.27
2019-02-14T03:54:24.013Z,1025.38
2019-02-14T03:59:23.030Z,1025.34
2019-02-14T04:04:22.650Z,1025.33
2019-02-14T04:09:21.897Z,1025.32
2019-02-14T04:14:21.681Z,1025.32
2019-02-14T04:19:21.657Z,1025.32
2019-02-14T04:24:20.622Z,1025.35
2019-02-14T04:29:19.908Z,1025.35
2019-02-14T04:34:18.647Z,1025.35
2019-02-14T04:39:18.223Z,1025.49
2019-02-14T04:44:17.070Z,1025.43
2019-02-14T04:49:17.777Z,1025.41
2019-02-14T04:54:17.870Z,1025.39
2019-02-14T04:59:17.762Z,1025.42
2019-02-14T05:04:17.848Z,1025.56
2019-02-14T05:09:16.679Z,1025.64
2019-02-14T05:14:15.683Z,1025.61
2019-02-14T05:19:15.001Z,1025.69
2019-02-14T05:24:14.865Z,1025.68
2019-02-14T05:29:13.927Z,1025.65
2019-02-14T05:34:13.953Z,1025.61
2019-02-14T05:39:12.685Z,1025.76
2019-02-14T05:44:13.715Z,1025.73
2019-02-14T05:49:13.972Z,1025.67
2019-02-14T05:59:13.127Z,1025.82
2019-02-14T06:04:12.932Z,1025.85
2019-02-14T06:09:12.931Z,1025.90
2019-02-14T06:14:11.740Z,1025.97
2019-02-14T06:19:12.808Z,1026.06
2019-02-14T06:24:12.145Z,1026.06
2019-02-14T06:29:13.225Z,1025.97
2019-02-14T06:34:12.799Z,1025.94
2019-02-14T06:39:11.920Z,1026.21
2019-02-14T06:44:13.013Z,1026.21
2019-02-14T06:49:14.040Z,1026.22
2019-02-14T06:54:13.746Z,1026.28
2019-02-14T06:59:13.801Z,1026.31
2019-02-14T07:04:14.045Z,1026.35
2019-02-14T07:09:13.119Z,1026.38
2019-02-14T07:14:13.208Z,1026.38
2019-02-14T07:19:11.758Z,1026.41
2019-02-14T07:24:11.817Z,1026.45
2019-02-14T07:29:10.866Z,1026.34
2019-02-14T07:34:09.814Z,1026.36
2019-02-14T07:39:08.808Z,1026.43
2019-02-14T07:44:08.848Z,1026.49
2019-02-14T07:54:09.051Z,1026.47
2019-02-14T07:59:08.876Z,1026.44
2019-02-14T08:04:08.008Z,1026.44
2019-02-14T08:09:07.860Z,1026.47
2019-02-14T08:14:07.855Z,1026.34
2019-02-14T08:19:07.176Z,1026.36
2019-02-14T08:24:06.823Z,1026.32
2019-02-14T08:29:05.849Z,1026.36
2019-02-14T08:34:05.215Z,1026.31
2019-02-14T08:39:05.134Z,1026.33
2019-02-14T08:44:05.839Z,1026.34
2019-02-14T08:49:05.276Z,1026.16
2019-02-14T08:54:04.875Z,1026.21
2019-02-14T08:59:03.827Z,1026.21
2019-02-14T09:04:03.061Z,1026.25
2019-02-14T09:09:04.097Z,1026.29
2019-02-14T09:14:03.869Z,1026.31
2019-02-14T09:19:04.877Z,1026.25
2019-02-14T09:24:04.849Z,1026.26
2019-02-14T09:29:04.904Z,1026.17
2019-02-14T09:34:05.042Z,1026.20
2019-02-14T09:39:04.890Z,1026.25
2019-02-14T09:49:05.316Z,1026.25
2019-02-14T09:54:04.901Z,1026.20
2019-02-14T09:59:03.986Z,1026.21
2019-02-14T10:04:03.972Z,1026.22
2019-02-14T10:09:03.031Z,1026.20
2019-02-14T10:14:03.691Z,1026.24
2019-02-14T10:19:02.121Z,1026.25
2019-02-14T10:24:01.186Z,1026.14
2019-02-14T10:29:00.880Z,1026.17
2019-02-14T10:34:00.945Z,1026.05
2019-02-14T10:39:01.108Z,1026.17
2019-02-14T10:44:00.042Z,1026.06
2019-02-14T10:48:58.916Z,1026.10
2019-02-14T10:53:57.935Z,1026.06
2019-02-14T10:58:59.151Z,1026.02
2019-02-14T11:03:57.929Z,1026.04
2019-02-14T11:08:59.146Z,1025.92
2019-02-14T11:13:57.891Z,1025.89
2019-02-14T11:18:57.123Z,1025.84
2019-02-14T11:23:56.948Z,1025.81
2019-02-14T11:28:57.957Z,1025.65
2019-02-14T11:33:58.037Z,1025.64
2019-02-14T11:38:56.877Z,1025.66
2019-02-14T11:43:55.942Z,1025.65
2019-02-14T11:48:54.915Z,1025.79
2019-02-14T11:53:54.186Z,1025.69
2019-02-14T11:58:52.986Z,1025.73
2019-02-14T12:03:53.935Z,1025.63
2019-02-14T12:09:00.153Z,1025.62
2019-02-14T12:13:55.959Z,1025.57
2019-02-14T12:18:55.926Z,1025.47
2019-02-14T12:23:54.936Z,1025.37
2019-02-14T12:28:54.925Z,1025.33
2019-02-14T12:33:54.989Z,1025.31
2019-02-14T12:38:54.980Z,1025.23
2019-02-14T12:43:53.939Z,1025.21
2019-02-14T12:48:53.968Z,1025.17
2019-02-14T12:53:53.950Z,1025.12
2019-02-14T12:58:53.932Z,1025.04
2019-02-14T13:03:53.927Z,1025.09
2019-02-14T13:08:53.999Z,1024.94
2019-02-14T13:13:53.982Z,1024.87
2019-02-14T13:18:53.518Z,1024.96
2019-02-14T13:23:52.517Z,1024.96
2019-02-14T13:28:52.021Z,1024.97
2019-02-14T13:33:51.489Z,1024.86
2019-02-14T13:38:51.963Z,1024.77
2019-02-14T13:43:51.972Z,1024.77
2019-02-14T13:48:52.953Z,1024.73
2019-02-14T13:53:53.226Z,1024.77
2019-02-14T13:58:52.993Z,1024.76
2019-02-14T14:03:52.992Z,1024.68
2019-02-14T14:08:52.947Z,1024.69
2019-02-14T14:13:53.163Z,1024.63
2019-02-14T14:18:54.133Z,1024.54
2019-02-14T14:23:52.982Z,1024.51
2019-02-14T14:28:53.202Z,1024.51
2019-02-14T14:33:51.929Z,1024.49
2019-02-14T14:38:51.599Z,1024.29
2019-02-14T14:43:50.950Z,1024.38
2019-02-14T14:48:50.225Z,1024.36
2019-02-14T14:53:49.068Z,1024.38
2019-02-14T14:58:48.961Z,1024.27
2019-02-14T15:03:48.094Z,1024.32
2019-02-14T15:08:47.964Z,1024.30
2019-02-14T15:13:47.449Z,1024.30
2019-02-14T15:18:46.507Z,1024.30
2019-02-14T15:23:46.029Z,1024.27
2019-02-14T15:28:45.951Z,1024.24
2019-02-14T15:33:44.961Z,1024.17
2019-02-14T15:38:46.012Z,1024.04
2019-02-14T15:43:45.209Z,1024.06
2019-02-14T15:48:44.632Z,1024.02
2019-02-14T15:53:45.626Z,1024.08
2019-02-14T15:58:42.232Z,1024.09
2019-02-14T16:03:43.031Z,1024.10
2019-02-14T16:08:44.559Z,1024.08
2019-02-14T16:13:42.816Z,1024.23
2019-02-14T16:18:44.496Z,1024.21
2019-02-14T16:23:41.970Z,1024.15
2019-02-14T16:28:40.979Z,1024.13
2019-02-14T16:33:41.163Z,1024.20
2019-02-14T16:38:40.161Z,1024.20
2019-02-14T16:43:39.993Z,1024.10
2019-02-14T16:48:39.019Z,1024.13
2019-02-14T16:53:39.008Z,1024.17
2019-02-14T16:58:39.172Z,1024.17
2019-02-14T17:03:39.188Z,1024.12
2019-02-14T17:08:39.021Z,1024.16
2019-02-14T17:13:37.948Z,1024.19
2019-02-14T17:18:37.005Z,1024.31
2019-02-14T17:23:37.161Z,1024.31
2019-02-14T17:28:37.013Z,1024.24
2019-02-14T17:33:35.973Z,1024.29
2019-02-14T17:38:35.208Z,1024.33
2019-02-14T17:43:35.255Z,1024.45
2019-02-14T17:48:35.202Z,1024.41
2019-02-14T17:53:34.989Z,1024.44
2019-02-14T17:58:34.071Z,1024.45
2019-02-14T18:03:33.210Z,1024.46
2019-02-14T18:08:33.116Z,1024.48
2019-02-14T18:13:32.966Z,1024.39
2019-02-14T18:18:33.297Z,1024.45
2019-02-14T18:23:33.134Z,1024.37
2019-02-14T18:28:32.404Z,1024.38
2019-02-14T18:33:31.996Z,1024.40
2019-02-14T18:38:32.378Z,1024.33
2019-02-14T18:43:31.233Z,1024.37
2019-02-14T18:48:32.011Z,1024.31
2019-02-14T18:53:32.058Z,1024.41
2019-02-14T18:58:31.024Z,1024.37
2019-02-14T19:03:30.107Z,1024.47
2019-02-14T19:08:29.180Z,1024.33
2019-02-14T19:13:29.075Z,1024.39
2019-02-14T19:18:30.127Z,1024.31
2019-02-14T19:23:29.418Z,1024.35
2019-02-14T19:28:29.068Z,1024.30
2019-02-14T19:33:28.519Z,1024.18
2019-02-14T19:38:27.254Z,1024.22
2019-02-14T19:43:27.320Z,1024.16
2019-02-14T19:48:27.061Z,1024.20
2019-02-14T19:53:27.046Z,1024.12
2019-02-14T19:58:27.124Z,1024.03
2019-02-14T20:03:26.005Z,1024.07
2019-02-14T20:08:26.151Z,1024.03
2019-02-14T20:13:26.077Z,1023.96
2019-02-14T20:18:25.257Z,1024.02
2019-02-14T20:23:25.083Z,1024.05
2019-02-14T20:28:24.094Z,1024.02
2019-02-14T20:33:23.042Z,1023.95
2019-02-14T20:38:23.237Z,1023.93
2019-02-14T20:43:23.098Z,1023.95
2019-02-14T20:48:23.123Z,1023.89
2019-02-14T20:53:23.095Z,1023.89
2019-02-14T20:58:22.278Z,1023.89
2019-02-14T21:03:22.093Z,1023.80
2019-02-14T21:08:21.100Z,1023.86
2019-02-14T21:13:21.090Z,1023.78
2019-02-14T21:18:21.187Z,1023.73
2019-02-14T21:23:20.072Z,1023.80
2019-02-14T21:28:19.110Z,1023.87
2019-02-14T21:33:19.111Z,1023.87
2019-02-14T21:38:18.109Z,1023.94
2019-02-14T21:43:19.169Z,1023.90
2019-02-14T21:48:20.136Z,1023.90
2019-02-14T21:53:20.099Z,1023.87
2019-02-14T21:58:20.106Z,1023.87
2019-02-14T22:03:20.138Z,1023.87
2019-02-14T22:08:21.090Z,1023.79
2019-02-14T22:13:20.972Z,1023.70
2019-02-14T22:18:20.991Z,1023.76
2019-02-14T22:23:21.018Z,1023.72
2019-02-14T22:28:21.017Z,1023.73
2019-02-14T22:33:20.373Z,1023.81
2019-02-14T22:38:19.235Z,1023.81
2019-02-14T22:43:19.096Z,1023.74
2019-02-14T22:48:19.009Z,1023.84
2019-02-14T22:53:19.028Z,1023.87
2019-02-14T22:58:19.026Z,1023.89
2019-02-14T23:03:18.002Z,1023.86
2019-02-14T23:08:17.255Z,1023.95
2019-02-14T23:13:17.002Z,1023.93
2019-02-14T23:18:16.200Z,1023.87
2019-02-14T23:23:16.016Z,1023.87
2019-02-14T23:28:17.040Z,1023.86
2019-02-14T23:33:17.019Z,1023.92
2019-02-14T23:38:16.207Z,1023.86
2019-02-14T23:43:16.005Z,1023.88
2019-02-14T23:48:16.038Z,1023.86
2019-02-14T23:53:17.033Z,1024.01
2019-02-14T23:58:16.163Z,1023.97
